sensor_id;sensor_type;location;lat;lon;timestamp;temperature;humidity
19200;DHT22;9732;52.498;5.408;2023-11-22T00:02:22;7.60;99.90
19200;DHT22;9732;52.498;5.408;2023-11-22T00:04:52;7.60;99.90
19200;DHT22;9732;52.498;5.408;2023-11-22T00:07:20;7.60;99.90
19200;DHT22;9732;52.498;5.408;2023-11-22T00:09:48;7.40;99.90
19200;DHT22;9732;52.498;5.408;2023-11-22T00:12:15;7.30;99.90
19200;DHT22;9732;52.498;5.408;2023-11-22T00:14:45;7.20;99.90
19200;DHT22;9732;52.498;5.408;2023-11-22T00:17:14;7.20;99.90
19200;DHT22;9732;52.498;5.408;2023-11-22T00:19:43;7.20;99.90
19200;DHT22;9732;52.498;5.408;2023-11-22T00:22:10;7.10;99.90
19200;DHT22;9732;52.498;5.408;2023-11-22T00:24:39;7.00;99.90
19200;DHT22;9732;52.498;5.408;2023-11-22T00:27:08;7.00;99.90
19200;DHT22;9732;52.498;5.408;2023-11-22T00:29:37;7.00;99.90
19200;DHT22;9732;52.498;5.408;2023-11-22T00:32:06;6.90;99.90
19200;DHT22;9732;52.498;5.408;2023-11-22T00:34:33;7.10;99.90
19200;DHT22;9732;52.498;5.408;2023-11-22T00:37:01;7.00;99.90
19200;DHT22;9732;52.498;5.408;2023-11-22T00:39:29;6.90;99.90
19200;DHT22;9732;52.498;5.408;2023-11-22T00:41:56;6.90;99.90
19200;DHT22;9732;52.498;5.408;2023-11-22T00:44:24;6.80;99.90
19200;DHT22;9732;52.498;5.408;2023-11-22T00:46:52;6.70;99.90
19200;DHT22;9732;52.498;5.408;2023-11-22T00:49:23;6.70;99.90
19200;DHT22;9732;52.498;5.408;2023-11-22T00:51:50;6.50;99.90
19200;DHT22;9732;52.498;5.408;2023-11-22T00:54:19;6.40;99.90
19200;DHT22;9732;52.498;5.408;2023-11-22T00:56:46;6.40;99.90
19200;DHT22;9732;52.498;5.408;2023-11-22T00:59:15;6.40;99.90
19200;DHT22;9732;52.498;5.408;2023-11-22T01:01:42;6.30;99.90
19200;DHT22;9732;52.498;5.408;2023-11-22T01:04:09;6.20;99.90
19200;DHT22;9732;52.498;5.408;2023-11-22T01:06:39;6.20;99.90
19200;DHT22;9732;52.498;5.408;2023-11-22T01:09:08;6.10;99.90
19200;DHT22;9732;52.498;5.408;2023-11-22T01:11:37;6.00;99.90
19200;DHT22;9732;52.498;5.408;2023-11-22T01:14:05;6.00;99.90
19200;DHT22;9732;52.498;5.408;2023-11-22T01:16:33;6.10;99.90
19200;DHT22;9732;52.498;5.408;2023-11-22T01:19:02;6.20;99.90
19200;DHT22;9732;52.498;5.408;2023-11-22T01:21:29;6.20;99.90
19200;DHT22;9732;52.498;5.408;2023-11-22T01:23:59;6.20;99.90
19200;DHT22;9732;52.498;5.408;2023-11-22T01:26:28;6.10;99.90
19200;DHT22;9732;52.498;5.408;2023-11-22T01:28:56;6.20;99.90
19200;DHT22;9732;52.498;5.408;2023-11-22T01:31:24;6.30;99.90
19200;DHT22;9732;52.498;5.408;2023-11-22T01:33:53;6.20;99.90
19200;DHT22;9732;52.498;5.408;2023-11-22T01:36:21;6.20;99.90
19200;DHT22;9732;52.498;5.408;2023-11-22T01:38:52;6.10;99.90
19200;DHT22;9732;52.498;5.408;2023-11-22T01:41:23;6.10;99.90
19200;DHT22;9732;52.498;5.408;2023-11-22T01:43:51;6.00;99.90
19200;DHT22;9732;52.498;5.408;2023-11-22T01:46:22;6.00;99.90
19200;DHT22;9732;52.498;5.408;2023-11-22T01:48:52;6.10;99.90
19200;DHT22;9732;52.498;5.408;2023-11-22T01:51:20;6.10;99.90
19200;DHT22;9732;52.498;5.408;2023-11-22T01:53:51;6.20;99.90
19200;DHT22;9732;52.498;5.408;2023-11-22T01:56:22;6.20;99.90
19200;DHT22;9732;52.498;5.408;2023-11-22T01:58:50;6.20;99.90
19200;DHT22;9732;52.498;5.408;2023-11-22T02:01:20;6.00;99.90
19200;DHT22;9732;52.498;5.408;2023-11-22T02:03:48;6.00;99.90
19200;DHT22;9732;52.498;5.408;2023-11-22T02:06:17;6.10;99.90
19200;DHT22;9732;52.498;5.408;2023-11-22T02:08:45;6.20;99.90
19200;DHT22;9732;52.498;5.408;2023-11-22T02:11:17;6.10;99.90
19200;DHT22;9732;52.498;5.408;2023-11-22T02:13:48;6.00;99.90
19200;DHT22;9732;52.498;5.408;2023-11-22T02:16:16;6.00;99.90
19200;DHT22;9732;52.498;5.408;2023-11-22T02:18:44;6.00;99.90
19200;DHT22;9732;52.498;5.408;2023-11-22T02:21:12;6.00;99.90
19200;DHT22;9732;52.498;5.408;2023-11-22T02:23:42;6.00;99.90
19200;DHT22;9732;52.498;5.408;2023-11-22T02:26:09;6.10;99.90
19200;DHT22;9732;52.498;5.408;2023-11-22T02:28:38;6.00;99.90
19200;DHT22;9732;52.498;5.408;2023-11-22T02:31:06;6.00;99.90
19200;DHT22;9732;52.498;5.408;2023-11-22T02:33:35;6.00;99.90
19200;DHT22;9732;52.498;5.408;2023-11-22T02:36:02;6.00;99.90
19200;DHT22;9732;52.498;5.408;2023-11-22T02:38:29;6.00;99.90
19200;DHT22;9732;52.498;5.408;2023-11-22T02:40:58;5.80;99.90
19200;DHT22;9732;52.498;5.408;2023-11-22T02:43:26;5.90;99.90
19200;DHT22;9732;52.498;5.408;2023-11-22T02:45:53;5.90;99.90
19200;DHT22;9732;52.498;5.408;2023-11-22T02:48:22;5.80;99.90
19200;DHT22;9732;52.498;5.408;2023-11-22T02:50:50;5.80;99.90
19200;DHT22;9732;52.498;5.408;2023-11-22T02:53:20;5.80;99.90
19200;DHT22;9732;52.498;5.408;2023-11-22T02:55:47;5.80;99.90
19200;DHT22;9732;52.498;5.408;2023-11-22T02:58:16;5.80;99.90
19200;DHT22;9732;52.498;5.408;2023-11-22T03:00:44;5.80;99.90
19200;DHT22;9732;52.498;5.408;2023-11-22T03:03:13;5.80;99.90
19200;DHT22;9732;52.498;5.408;2023-11-22T03:05:40;5.70;99.90
19200;DHT22;9732;52.498;5.408;2023-11-22T03:08:06;5.60;99.90
19200;DHT22;9732;52.498;5.408;2023-11-22T03:10:35;5.50;99.90
19200;DHT22;9732;52.498;5.408;2023-11-22T03:13:02;5.50;99.90
19200;DHT22;9732;52.498;5.408;2023-11-22T03:15:32;5.40;99.90
19200;DHT22;9732;52.498;5.408;2023-11-22T03:17:59;5.40;99.90
19200;DHT22;9732;52.498;5.408;2023-11-22T03:20:29;5.40;99.90
19200;DHT22;9732;52.498;5.408;2023-11-22T03:22:56;5.40;99.90
19200;DHT22;9732;52.498;5.408;2023-11-22T03:25:24;5.40;99.90
19200;DHT22;9732;52.498;5.408;2023-11-22T03:27:52;5.40;99.90
19200;DHT22;9732;52.498;5.408;2023-11-22T03:30:20;5.50;99.90
19200;DHT22;9732;52.498;5.408;2023-11-22T03:32:48;5.60;99.90
19200;DHT22;9732;52.498;5.408;2023-11-22T03:35:17;5.60;99.90
19200;DHT22;9732;52.498;5.408;2023-11-22T03:37:45;5.50;99.90
19200;DHT22;9732;52.498;5.408;2023-11-22T03:40:12;5.50;99.90
19200;DHT22;9732;52.498;5.408;2023-11-22T03:42:40;5.50;99.90
19200;DHT22;9732;52.498;5.408;2023-11-22T03:45:09;5.50;99.90
19200;DHT22;9732;52.498;5.408;2023-11-22T03:47:38;5.60;99.90
19200;DHT22;9732;52.498;5.408;2023-11-22T03:50:08;5.60;99.90
19200;DHT22;9732;52.498;5.408;2023-11-22T03:52:35;5.60;99.90
19200;DHT22;9732;52.498;5.408;2023-11-22T03:55:04;5.60;99.90
19200;DHT22;9732;52.498;5.408;2023-11-22T03:57:31;5.60;99.90
19200;DHT22;9732;52.498;5.408;2023-11-22T03:59:58;5.60;99.90
19200;DHT22;9732;52.498;5.408;2023-11-22T04:02:26;5.60;99.90
19200;DHT22;9732;52.498;5.408;2023-11-22T04:04:55;5.60;99.90
19200;DHT22;9732;52.498;5.408;2023-11-22T04:07:24;5.60;99.90
19200;DHT22;9732;52.498;5.408;2023-11-22T04:09:52;5.60;99.90
19200;DHT22;9732;52.498;5.408;2023-11-22T04:12:19;5.60;99.90
19200;DHT22;9732;52.498;5.408;2023-11-22T04:14:47;5.70;99.90
19200;DHT22;9732;52.498;5.408;2023-11-22T04:17:15;5.80;99.90
19200;DHT22;9732;52.498;5.408;2023-11-22T04:19:42;5.70;99.90
19200;DHT22;9732;52.498;5.408;2023-11-22T04:22:10;5.60;99.90
19200;DHT22;9732;52.498;5.408;2023-11-22T04:24:39;5.60;99.90
19200;DHT22;9732;52.498;5.408;2023-11-22T04:27:06;5.50;99.90
19200;DHT22;9732;52.498;5.408;2023-11-22T04:29:35;5.50;99.90
19200;DHT22;9732;52.498;5.408;2023-11-22T04:32:03;5.50;99.90
19200;DHT22;9732;52.498;5.408;2023-11-22T04:34:31;5.40;99.90
19200;DHT22;9732;52.498;5.408;2023-11-22T04:36:58;5.50;99.90
19200;DHT22;9732;52.498;5.408;2023-11-22T04:39:27;5.40;99.90
19200;DHT22;9732;52.498;5.408;2023-11-22T04:41:56;5.40;99.90
19200;DHT22;9732;52.498;5.408;2023-11-22T04:44:24;5.70;99.90
19200;DHT22;9732;52.498;5.408;2023-11-22T04:46:52;5.40;99.90
19200;DHT22;9732;52.498;5.408;2023-11-22T04:49:20;5.50;99.90
19200;DHT22;9732;52.498;5.408;2023-11-22T04:51:47;5.40;99.90
19200;DHT22;9732;52.498;5.408;2023-11-22T04:54:16;5.40;99.90
19200;DHT22;9732;52.498;5.408;2023-11-22T04:56:43;5.40;99.90
19200;DHT22;9732;52.498;5.408;2023-11-22T04:59:12;5.40;99.90
19200;DHT22;9732;52.498;5.408;2023-11-22T05:01:41;5.40;99.90
19200;DHT22;9732;52.498;5.408;2023-11-22T05:04:08;5.30;99.90
19200;DHT22;9732;52.498;5.408;2023-11-22T05:06:36;5.40;99.90
19200;DHT22;9732;52.498;5.408;2023-11-22T05:09:05;5.50;99.90
19200;DHT22;9732;52.498;5.408;2023-11-22T05:11:32;5.40;99.90
19200;DHT22;9732;52.498;5.408;2023-11-22T05:13:59;5.40;99.90
19200;DHT22;9732;52.498;5.408;2023-11-22T05:16:28;5.40;99.90
19200;DHT22;9732;52.498;5.408;2023-11-22T05:18:57;5.30;99.90
19200;DHT22;9732;52.498;5.408;2023-11-22T05:21:24;5.40;99.90
19200;DHT22;9732;52.498;5.408;2023-11-22T05:23:52;5.40;99.90
19200;DHT22;9732;52.498;5.408;2023-11-22T05:26:20;5.30;99.90
19200;DHT22;9732;52.498;5.408;2023-11-22T05:28:48;5.30;99.90
19200;DHT22;9732;52.498;5.408;2023-11-22T05:31:15;5.30;99.90
19200;DHT22;9732;52.498;5.408;2023-11-22T05:33:44;5.30;99.90
19200;DHT22;9732;52.498;5.408;2023-11-22T05:36:10;5.30;99.90
19200;DHT22;9732;52.498;5.408;2023-11-22T05:38:40;5.20;99.90
19200;DHT22;9732;52.498;5.408;2023-11-22T05:41:06;5.20;99.90
19200;DHT22;9732;52.498;5.408;2023-11-22T05:43:33;5.20;99.90
19200;DHT22;9732;52.498;5.408;2023-11-22T05:46:02;5.30;99.90
19200;DHT22;9732;52.498;5.408;2023-11-22T05:48:29;5.20;99.90
19200;DHT22;9732;52.498;5.408;2023-11-22T05:50:58;5.20;99.90
19200;DHT22;9732;52.498;5.408;2023-11-22T05:53:26;5.20;99.90
19200;DHT22;9732;52.498;5.408;2023-11-22T05:55:54;5.30;99.90
19200;DHT22;9732;52.498;5.408;2023-11-22T05:58:21;5.30;99.90
19200;DHT22;9732;52.498;5.408;2023-11-22T06:00:48;5.30;99.90
19200;DHT22;9732;52.498;5.408;2023-11-22T06:03:16;5.20;99.90
19200;DHT22;9732;52.498;5.408;2023-11-22T06:05:44;5.20;99.90
19200;DHT22;9732;52.498;5.408;2023-11-22T06:08:13;5.20;99.90
19200;DHT22;9732;52.498;5.408;2023-11-22T06:10:41;5.20;99.90
19200;DHT22;9732;52.498;5.408;2023-11-22T06:13:08;5.20;99.90
19200;DHT22;9732;52.498;5.408;2023-11-22T06:15:37;5.20;99.90
19200;DHT22;9732;52.498;5.408;2023-11-22T06:18:05;5.20;99.90
19200;DHT22;9732;52.498;5.408;2023-11-22T06:20:32;5.20;99.90
19200;DHT22;9732;52.498;5.408;2023-11-22T06:23:00;5.10;99.90
19200;DHT22;9732;52.498;5.408;2023-11-22T06:25:29;5.30;99.90
19200;DHT22;9732;52.498;5.408;2023-11-22T06:27:58;5.40;99.90
19200;DHT22;9732;52.498;5.408;2023-11-22T06:30:26;5.40;99.90
19200;DHT22;9732;52.498;5.408;2023-11-22T06:32:53;5.50;99.90
19200;DHT22;9732;52.498;5.408;2023-11-22T06:35:21;5.40;99.90
19200;DHT22;9732;52.498;5.408;2023-11-22T06:37:48;5.40;99.90
19200;DHT22;9732;52.498;5.408;2023-11-22T06:40:16;5.40;99.90
19200;DHT22;9732;52.498;5.408;2023-11-22T06:42:45;5.40;99.90
19200;DHT22;9732;52.498;5.408;2023-11-22T06:45:12;5.40;99.90
19200;DHT22;9732;52.498;5.408;2023-11-22T06:47:40;5.40;99.90
19200;DHT22;9732;52.498;5.408;2023-11-22T06:50:08;5.40;99.90
19200;DHT22;9732;52.498;5.408;2023-11-22T06:52:36;5.40;99.90
19200;DHT22;9732;52.498;5.408;2023-11-22T06:55:05;5.40;99.90
19200;DHT22;9732;52.498;5.408;2023-11-22T06:57:33;5.30;99.90
19200;DHT22;9732;52.498;5.408;2023-11-22T07:00:03;5.20;99.90
19200;DHT22;9732;52.498;5.408;2023-11-22T07:02:30;5.30;99.90
19200;DHT22;9732;52.498;5.408;2023-11-22T07:04:59;5.30;99.90
19200;DHT22;9732;52.498;5.408;2023-11-22T07:07:27;5.40;99.90
19200;DHT22;9732;52.498;5.408;2023-11-22T07:09:53;5.40;99.90
19200;DHT22;9732;52.498;5.408;2023-11-22T07:12:23;5.30;99.90
19200;DHT22;9732;52.498;5.408;2023-11-22T07:14:50;5.30;99.90
19200;DHT22;9732;52.498;5.408;2023-11-22T07:17:23;5.30;99.90
19200;DHT22;9732;52.498;5.408;2023-11-22T07:19:53;5.40;99.90
19200;DHT22;9732;52.498;5.408;2023-11-22T07:22:21;5.30;99.90
19200;DHT22;9732;52.498;5.408;2023-11-22T07:24:50;5.40;99.90
19200;DHT22;9732;52.498;5.408;2023-11-22T07:27:19;5.40;99.90
19200;DHT22;9732;52.498;5.408;2023-11-22T07:29:48;5.30;99.90
19200;DHT22;9732;52.498;5.408;2023-11-22T07:32:18;5.20;99.90
19200;DHT22;9732;52.498;5.408;2023-11-22T07:34:47;5.20;99.90
19200;DHT22;9732;52.498;5.408;2023-11-22T07:37:14;5.10;99.90
19200;DHT22;9732;52.498;5.408;2023-11-22T07:39:44;5.10;99.90
19200;DHT22;9732;52.498;5.408;2023-11-22T07:42:13;5.30;99.90
19200;DHT22;9732;52.498;5.408;2023-11-22T07:44:42;5.10;99.90
19200;DHT22;9732;52.498;5.408;2023-11-22T07:47:09;5.20;99.90
19200;DHT22;9732;52.498;5.408;2023-11-22T07:49:39;5.30;99.90
19200;DHT22;9732;52.498;5.408;2023-11-22T07:52:09;5.30;99.90
19200;DHT22;9732;52.498;5.408;2023-11-22T07:54:39;5.30;99.90
19200;DHT22;9732;52.498;5.408;2023-11-22T07:57:08;5.30;99.90
19200;DHT22;9732;52.498;5.408;2023-11-22T07:59:35;5.30;99.90
19200;DHT22;9732;52.498;5.408;2023-11-22T08:02:03;5.30;99.90
19200;DHT22;9732;52.498;5.408;2023-11-22T08:04:33;5.30;99.90
19200;DHT22;9732;52.498;5.408;2023-11-22T08:07:00;5.60;99.90
19200;DHT22;9732;52.498;5.408;2023-11-22T08:09:28;5.50;99.90
19200;DHT22;9732;52.498;5.408;2023-11-22T08:11:58;5.50;99.90
19200;DHT22;9732;52.498;5.408;2023-11-22T08:14:26;5.60;99.90
19200;DHT22;9732;52.498;5.408;2023-11-22T08:16:53;5.60;99.90
19200;DHT22;9732;52.498;5.408;2023-11-22T08:19:20;5.70;99.90
19200;DHT22;9732;52.498;5.408;2023-11-22T08:21:47;5.80;99.90
19200;DHT22;9732;52.498;5.408;2023-11-22T08:24:14;5.80;99.90
19200;DHT22;9732;52.498;5.408;2023-11-22T08:26:43;5.80;99.90
19200;DHT22;9732;52.498;5.408;2023-11-22T08:29:10;5.80;99.90
19200;DHT22;9732;52.498;5.408;2023-11-22T08:31:37;5.80;99.90
19200;DHT22;9732;52.498;5.408;2023-11-22T08:34:04;5.80;99.90
19200;DHT22;9732;52.498;5.408;2023-11-22T08:36:33;5.90;99.90
19200;DHT22;9732;52.498;5.408;2023-11-22T08:39:02;5.90;99.90
19200;DHT22;9732;52.498;5.408;2023-11-22T08:41:30;6.00;99.90
19200;DHT22;9732;52.498;5.408;2023-11-22T08:43:59;5.90;99.90
19200;DHT22;9732;52.498;5.408;2023-11-22T08:46:27;5.90;99.90
19200;DHT22;9732;52.498;5.408;2023-11-22T08:48:54;6.00;99.90
19200;DHT22;9732;52.498;5.408;2023-11-22T08:51:22;5.90;99.90
19200;DHT22;9732;52.498;5.408;2023-11-22T08:53:49;5.80;99.90
19200;DHT22;9732;52.498;5.408;2023-11-22T08:56:16;5.80;99.90
19200;DHT22;9732;52.498;5.408;2023-11-22T08:58:44;5.90;99.90
19200;DHT22;9732;52.498;5.408;2023-11-22T09:01:12;6.00;99.90
19200;DHT22;9732;52.498;5.408;2023-11-22T09:03:40;6.10;99.90
19200;DHT22;9732;52.498;5.408;2023-11-22T09:06:09;6.10;99.90
19200;DHT22;9732;52.498;5.408;2023-11-22T09:08:35;6.20;99.90
19200;DHT22;9732;52.498;5.408;2023-11-22T09:11:04;6.20;99.90
19200;DHT22;9732;52.498;5.408;2023-11-22T09:13:33;6.20;99.90
19200;DHT22;9732;52.498;5.408;2023-11-22T09:16:00;6.20;99.90
19200;DHT22;9732;52.498;5.408;2023-11-22T09:18:32;6.20;99.90
19200;DHT22;9732;52.498;5.408;2023-11-22T09:20:59;6.20;99.90
19200;DHT22;9732;52.498;5.408;2023-11-22T09:23:26;6.20;99.90
19200;DHT22;9732;52.498;5.408;2023-11-22T09:25:55;6.30;99.90
19200;DHT22;9732;52.498;5.408;2023-11-22T09:28:22;6.40;99.90
19200;DHT22;9732;52.498;5.408;2023-11-22T09:30:49;6.40;99.90
19200;DHT22;9732;52.498;5.408;2023-11-22T09:33:16;6.50;99.90
19200;DHT22;9732;52.498;5.408;2023-11-22T09:35:46;6.50;99.90
19200;DHT22;9732;52.498;5.408;2023-11-22T09:38:15;6.50;99.90
19200;DHT22;9732;52.498;5.408;2023-11-22T09:40:44;6.50;99.90
19200;DHT22;9732;52.498;5.408;2023-11-22T09:43:13;6.60;99.90
19200;DHT22;9732;52.498;5.408;2023-11-22T09:45:43;6.60;99.90
19200;DHT22;9732;52.498;5.408;2023-11-22T09:48:16;6.60;99.90
19200;DHT22;9732;52.498;5.408;2023-11-22T09:50:53;6.60;99.90
19200;DHT22;9732;52.498;5.408;2023-11-22T09:53:28;6.60;99.90
19200;DHT22;9732;52.498;5.408;2023-11-22T09:55:58;6.60;99.90
19200;DHT22;9732;52.498;5.408;2023-11-22T09:58:27;6.70;99.90
19200;DHT22;9732;52.498;5.408;2023-11-22T10:00:57;6.60;99.90
19200;DHT22;9732;52.498;5.408;2023-11-22T10:03:28;6.70;99.90
19200;DHT22;9732;52.498;5.408;2023-11-22T10:05:57;6.70;99.90
19200;DHT22;9732;52.498;5.408;2023-11-22T10:08:25;6.70;99.90
19200;DHT22;9732;52.498;5.408;2023-11-22T10:10:56;6.70;99.90
19200;DHT22;9732;52.498;5.408;2023-11-22T10:13:24;6.70;99.90
19200;DHT22;9732;52.498;5.408;2023-11-22T10:15:56;6.80;99.90
19200;DHT22;9732;52.498;5.408;2023-11-22T10:18:39;6.70;99.90
19200;DHT22;9732;52.498;5.408;2023-11-22T10:21:21;6.80;99.90
19200;DHT22;9732;52.498;5.408;2023-11-22T10:23:50;6.90;99.90
19200;DHT22;9732;52.498;5.408;2023-11-22T10:26:18;6.90;99.90
19200;DHT22;9732;52.498;5.408;2023-11-22T10:28:46;7.00;99.90
19200;DHT22;9732;52.498;5.408;2023-11-22T10:31:13;7.10;99.90
19200;DHT22;9732;52.498;5.408;2023-11-22T10:33:40;7.10;99.90
19200;DHT22;9732;52.498;5.408;2023-11-22T10:36:08;7.10;99.90
19200;DHT22;9732;52.498;5.408;2023-11-22T10:38:37;7.10;99.90
19200;DHT22;9732;52.498;5.408;2023-11-22T10:41:04;7.10;99.90
19200;DHT22;9732;52.498;5.408;2023-11-22T10:43:31;7.10;99.90
19200;DHT22;9732;52.498;5.408;2023-11-22T10:46:01;7.10;99.90
19200;DHT22;9732;52.498;5.408;2023-11-22T10:48:30;7.10;99.90
19200;DHT22;9732;52.498;5.408;2023-11-22T10:51:00;7.20;99.90
19200;DHT22;9732;52.498;5.408;2023-11-22T10:53:32;7.20;99.90
19200;DHT22;9732;52.498;5.408;2023-11-22T10:56:10;7.20;99.90
19200;DHT22;9732;52.498;5.408;2023-11-22T10:58:43;7.30;99.90
19200;DHT22;9732;52.498;5.408;2023-11-22T11:01:14;7.30;99.90
19200;DHT22;9732;52.498;5.408;2023-11-22T11:03:46;7.30;99.90
19200;DHT22;9732;52.498;5.408;2023-11-22T11:06:15;7.40;99.90
19200;DHT22;9732;52.498;5.408;2023-11-22T11:08:47;7.40;99.90
19200;DHT22;9732;52.498;5.408;2023-11-22T11:11:17;7.40;99.90
19200;DHT22;9732;52.498;5.408;2023-11-22T11:13:44;7.40;99.90
19200;DHT22;9732;52.498;5.408;2023-11-22T11:16:12;7.40;99.90
19200;DHT22;9732;52.498;5.408;2023-11-22T11:18:39;7.30;99.90
19200;DHT22;9732;52.498;5.408;2023-11-22T11:21:08;7.50;99.90
19200;DHT22;9732;52.498;5.408;2023-11-22T11:23:39;7.30;99.90
19200;DHT22;9732;52.498;5.408;2023-11-22T11:26:16;7.40;99.90
19200;DHT22;9732;52.498;5.408;2023-11-22T11:28:45;7.40;99.90
19200;DHT22;9732;52.498;5.408;2023-11-22T11:31:13;7.40;99.90
19200;DHT22;9732;52.498;5.408;2023-11-22T11:33:54;7.40;99.90
19200;DHT22;9732;52.498;5.408;2023-11-22T11:36:23;7.30;99.90
19200;DHT22;9732;52.498;5.408;2023-11-22T11:38:51;7.40;99.90
19200;DHT22;9732;52.498;5.408;2023-11-22T11:41:24;7.40;99.90
19200;DHT22;9732;52.498;5.408;2023-11-22T11:43:51;7.40;99.90
19200;DHT22;9732;52.498;5.408;2023-11-22T11:46:18;7.40;99.90
19200;DHT22;9732;52.498;5.408;2023-11-22T11:48:48;7.30;99.90
19200;DHT22;9732;52.498;5.408;2023-11-22T11:51:19;7.30;99.90
19200;DHT22;9732;52.498;5.408;2023-11-22T11:53:48;7.30;99.90
19200;DHT22;9732;52.498;5.408;2023-11-22T11:56:15;7.30;99.90
19200;DHT22;9732;52.498;5.408;2023-11-22T11:58:45;7.30;99.90
19200;DHT22;9732;52.498;5.408;2023-11-22T12:01:13;7.50;99.90
19200;DHT22;9732;52.498;5.408;2023-11-22T12:03:40;7.40;99.90
19200;DHT22;9732;52.498;5.408;2023-11-22T12:06:07;7.50;99.90
19200;DHT22;9732;52.498;5.408;2023-11-22T12:08:34;7.40;99.90
19200;DHT22;9732;52.498;5.408;2023-11-22T12:11:02;7.50;99.90
19200;DHT22;9732;52.498;5.408;2023-11-22T12:13:31;7.70;99.90
19200;DHT22;9732;52.498;5.408;2023-11-22T12:16:00;7.70;99.90
19200;DHT22;9732;52.498;5.408;2023-11-22T12:18:28;7.60;99.90
19200;DHT22;9732;52.498;5.408;2023-11-22T12:20:57;7.60;99.90
19200;DHT22;9732;52.498;5.408;2023-11-22T12:23:26;7.60;99.90
19200;DHT22;9732;52.498;5.408;2023-11-22T12:25:54;7.70;99.90
19200;DHT22;9732;52.498;5.408;2023-11-22T12:28:23;7.70;99.90
19200;DHT22;9732;52.498;5.408;2023-11-22T12:30:49;7.80;99.90
19200;DHT22;9732;52.498;5.408;2023-11-22T12:33:18;7.70;99.90
19200;DHT22;9732;52.498;5.408;2023-11-22T12:35:45;7.60;99.90
19200;DHT22;9732;52.498;5.408;2023-11-22T12:38:12;7.60;99.90
19200;DHT22;9732;52.498;5.408;2023-11-22T12:40:43;7.60;99.90
19200;DHT22;9732;52.498;5.408;2023-11-22T12:43:12;7.60;99.90
19200;DHT22;9732;52.498;5.408;2023-11-22T12:45:39;7.50;99.90
19200;DHT22;9732;52.498;5.408;2023-11-22T12:48:22;7.60;99.90
19200;DHT22;9732;52.498;5.408;2023-11-22T12:50:50;7.60;99.90
19200;DHT22;9732;52.498;5.408;2023-11-22T12:53:18;7.60;99.90
19200;DHT22;9732;52.498;5.408;2023-11-22T12:55:48;7.60;99.90
19200;DHT22;9732;52.498;5.408;2023-11-22T12:58:16;7.60;99.90
19200;DHT22;9732;52.498;5.408;2023-11-22T13:00:45;7.60;99.90
19200;DHT22;9732;52.498;5.408;2023-11-22T13:03:12;7.60;99.90
19200;DHT22;9732;52.498;5.408;2023-11-22T13:05:41;7.50;99.90
19200;DHT22;9732;52.498;5.408;2023-11-22T13:08:09;7.50;99.90
19200;DHT22;9732;52.498;5.408;2023-11-22T13:10:38;7.50;99.90
19200;DHT22;9732;52.498;5.408;2023-11-22T13:13:05;7.50;99.90
19200;DHT22;9732;52.498;5.408;2023-11-22T13:15:34;7.40;99.90
19200;DHT22;9732;52.498;5.408;2023-11-22T13:18:01;7.40;99.90
19200;DHT22;9732;52.498;5.408;2023-11-22T13:20:28;7.40;99.90
19200;DHT22;9732;52.498;5.408;2023-11-22T13:22:56;7.40;99.90
19200;DHT22;9732;52.498;5.408;2023-11-22T13:25:25;7.50;99.90
19200;DHT22;9732;52.498;5.408;2023-11-22T13:27:52;7.30;99.90
19200;DHT22;9732;52.498;5.408;2023-11-22T13:30:22;7.40;99.90
19200;DHT22;9732;52.498;5.408;2023-11-22T13:32:50;7.40;99.90
19200;DHT22;9732;52.498;5.408;2023-11-22T13:35:17;7.40;99.90
19200;DHT22;9732;52.498;5.408;2023-11-22T13:37:45;7.40;99.90
19200;DHT22;9732;52.498;5.408;2023-11-22T13:40:15;7.50;99.90
19200;DHT22;9732;52.498;5.408;2023-11-22T13:42:42;7.40;99.90
19200;DHT22;9732;52.498;5.408;2023-11-22T13:45:10;7.50;99.90
19200;DHT22;9732;52.498;5.408;2023-11-22T13:47:43;7.40;99.90
19200;DHT22;9732;52.498;5.408;2023-11-22T13:50:12;7.40;99.90
19200;DHT22;9732;52.498;5.408;2023-11-22T13:52:41;7.40;99.90
19200;DHT22;9732;52.498;5.408;2023-11-22T13:55:08;7.30;99.90
19200;DHT22;9732;52.498;5.408;2023-11-22T13:57:38;7.30;99.90
19200;DHT22;9732;52.498;5.408;2023-11-22T14:00:05;7.30;99.90
19200;DHT22;9732;52.498;5.408;2023-11-22T14:02:35;7.40;99.90
19200;DHT22;9732;52.498;5.408;2023-11-22T14:05:03;7.40;99.90
19200;DHT22;9732;52.498;5.408;2023-11-22T14:07:33;7.40;99.90
19200;DHT22;9732;52.498;5.408;2023-11-22T14:10:00;7.50;99.90
19200;DHT22;9732;52.498;5.408;2023-11-22T14:12:28;7.50;99.90
19200;DHT22;9732;52.498;5.408;2023-11-22T14:14:57;7.50;99.90
19200;DHT22;9732;52.498;5.408;2023-11-22T14:17:24;7.50;99.90
19200;DHT22;9732;52.498;5.408;2023-11-22T14:19:51;7.60;99.90
19200;DHT22;9732;52.498;5.408;2023-11-22T14:22:18;7.50;99.90
19200;DHT22;9732;52.498;5.408;2023-11-22T14:24:46;7.50;99.90
19200;DHT22;9732;52.498;5.408;2023-11-22T14:27:13;7.50;99.90
19200;DHT22;9732;52.498;5.408;2023-11-22T14:29:39;7.50;99.90
19200;DHT22;9732;52.498;5.408;2023-11-22T14:32:09;7.50;99.90
19200;DHT22;9732;52.498;5.408;2023-11-22T14:34:36;7.50;99.90
19200;DHT22;9732;52.498;5.408;2023-11-22T14:37:04;7.50;99.90
19200;DHT22;9732;52.498;5.408;2023-11-22T14:39:30;7.50;99.90
19200;DHT22;9732;52.498;5.408;2023-11-22T14:41:59;7.50;99.90
19200;DHT22;9732;52.498;5.408;2023-11-22T14:44:25;7.50;99.90
19200;DHT22;9732;52.498;5.408;2023-11-22T14:46:52;7.50;99.90
19200;DHT22;9732;52.498;5.408;2023-11-22T14:49:20;7.50;99.90
19200;DHT22;9732;52.498;5.408;2023-11-22T14:51:47;7.50;99.90
19200;DHT22;9732;52.498;5.408;2023-11-22T14:54:14;7.40;99.90
19200;DHT22;9732;52.498;5.408;2023-11-22T14:56:40;7.60;99.90
19200;DHT22;9732;52.498;5.408;2023-11-22T14:59:07;7.50;99.90
19200;DHT22;9732;52.498;5.408;2023-11-22T15:01:34;7.50;99.90
19200;DHT22;9732;52.498;5.408;2023-11-22T15:04:01;7.40;99.90
19200;DHT22;9732;52.498;5.408;2023-11-22T15:06:29;7.50;99.90
19200;DHT22;9732;52.498;5.408;2023-11-22T15:08:55;7.40;99.90
19200;DHT22;9732;52.498;5.408;2023-11-22T15:11:23;7.40;99.90
19200;DHT22;9732;52.498;5.408;2023-11-22T15:13:49;7.40;99.90
19200;DHT22;9732;52.498;5.408;2023-11-22T15:16:16;7.40;99.90
19200;DHT22;9732;52.498;5.408;2023-11-22T15:18:44;7.30;99.90
19200;DHT22;9732;52.498;5.408;2023-11-22T15:21:11;7.30;99.90
19200;DHT22;9732;52.498;5.408;2023-11-22T15:23:40;7.30;99.90
19200;DHT22;9732;52.498;5.408;2023-11-22T15:26:07;7.30;99.90
19200;DHT22;9732;52.498;5.408;2023-11-22T15:28:34;7.30;99.90
19200;DHT22;9732;52.498;5.408;2023-11-22T15:31:00;7.30;99.90
19200;DHT22;9732;52.498;5.408;2023-11-22T15:33:27;7.30;99.90
19200;DHT22;9732;52.498;5.408;2023-11-22T15:35:54;7.30;99.90
19200;DHT22;9732;52.498;5.408;2023-11-22T15:38:21;7.30;99.90
19200;DHT22;9732;52.498;5.408;2023-11-22T15:40:49;7.30;99.90
19200;DHT22;9732;52.498;5.408;2023-11-22T15:43:16;7.30;99.90
19200;DHT22;9732;52.498;5.408;2023-11-22T15:45:43;7.30;99.90
19200;DHT22;9732;52.498;5.408;2023-11-22T15:48:09;7.30;99.90
19200;DHT22;9732;52.498;5.408;2023-11-22T15:50:38;7.20;99.90
19200;DHT22;9732;52.498;5.408;2023-11-22T15:53:05;7.20;99.90
19200;DHT22;9732;52.498;5.408;2023-11-22T15:55:38;7.20;99.90
19200;DHT22;9732;52.498;5.408;2023-11-22T15:58:06;7.20;99.90
19200;DHT22;9732;52.498;5.408;2023-11-22T16:00:34;7.10;99.90
19200;DHT22;9732;52.498;5.408;2023-11-22T16:03:01;7.10;99.90
19200;DHT22;9732;52.498;5.408;2023-11-22T16:05:29;7.10;99.90
19200;DHT22;9732;52.498;5.408;2023-11-22T16:07:55;7.10;99.90
19200;DHT22;9732;52.498;5.408;2023-11-22T16:10:22;7.10;99.90